aviador You're here:

CYZE Decoded Metar

GORE BAY in ON, CANADA
Report Time2017-12-17 07:00:00
UTC Time2017-12-17 07:59:29
Flight Rules vfr VFR
Wind090° at 06 kt
W.Decomp.*RWY 11: 5.9 kt HW 1.1 kt LCW
RWY 05: 3.9 kt HW 4.5 kt RCW
W.Rank090° ranks 33
Current wind is below 090° avg. (7.0)
Visibility9999 m
Phenomena:N/A
Clouds:N/A
Expected CloudBase > 800 ft AGL from Temp-Dew spread
CeilingNone
Temp-18°C (ISA -32)
Dew Point-20°C (84% RH)
AAT-23.7°C
QNH1026 hPa
Density Alt-3,835 ft
Elevation633 ft
Report Wrong Elevation
Raw Report
CYZE 170700Z AUTO 09006KT 9SM CLR M18/M20 A3030 RMK SLP280=

Extra information for CYZE:More info

Metar Taf Metar & Taf Last 4 Metars F.Rules Stats Wind Profile Meteogram Temp Stats Airport Information Weather charts Add Link Nearby VenuesMetar ALERT Operation Metar Decoded Social comments